createdAt,value
2019-04-27T00:02:33.335Z,10.30
2019-04-27T00:05:33.242Z,10.30
2019-04-27T00:08:08.345Z,10.20
2019-04-27T00:10:43.702Z,10.20
2019-04-27T00:13:14.910Z,10.20
2019-04-27T00:15:53.787Z,10.20
2019-04-27T00:18:49.880Z,10.20
2019-04-27T00:21:43.116Z,10.30
2019-04-27T00:24:13.556Z,10.30
2019-04-27T00:26:43.364Z,10.30
2019-04-27T00:29:13.781Z,10.30
2019-04-27T00:31:43.538Z,10.30
2019-04-27T00:34:13.729Z,10.30
2019-04-27T00:36:53.482Z,10.40
2019-04-27T00:39:30.869Z,10.40
2019-04-27T00:42:00.010Z,10.40
2019-04-27T00:44:29.137Z,10.30
2019-04-27T00:46:58.336Z,10.40
2019-04-27T00:49:27.473Z,10.40
2019-04-27T00:51:56.629Z,10.40
2019-04-27T00:54:25.787Z,10.40
2019-04-27T00:57:04.775Z,10.30
2019-04-27T00:59:53.076Z,10.40
2019-04-27T01:02:48.165Z,10.40
2019-04-27T01:05:20.717Z,10.40
2019-04-27T01:07:50.067Z,10.30
2019-04-27T01:10:19.625Z,10.30
2019-04-27T01:12:48.859Z,10.30
2019-04-27T01:15:18.004Z,10.10
2019-04-27T01:17:48.950Z,10.10
2019-04-27T01:20:18.583Z,10.10
2019-04-27T01:22:49.232Z,10.20
2019-04-27T01:25:19.117Z,10.10
2019-04-27T01:28:14.805Z,10.10
2019-04-27T01:30:49.023Z,10.00
2019-04-27T01:33:19.741Z,10.00
2019-04-27T01:35:49.206Z,10.00
2019-04-27T01:38:19.215Z,10.00
2019-04-27T01:40:49.798Z,10.00
2019-04-27T01:43:19.012Z,9.90
2019-04-27T01:45:48.830Z,9.90
2019-04-27T01:48:23.619Z,9.90
2019-04-27T01:50:49.261Z,9.80
2019-04-27T01:53:19.075Z,9.90
2019-04-27T01:55:49.159Z,9.90
2019-04-27T01:58:20.164Z,9.80
2019-04-27T02:01:09.637Z,9.90
2019-04-27T02:04:09.997Z,9.80
2019-04-27T02:06:39.312Z,9.80
2019-04-27T02:09:12.503Z,9.80
2019-04-27T02:11:41.619Z,9.80
2019-04-27T02:14:11.120Z,9.80
2019-04-27T02:16:40.339Z,9.80
2019-04-27T02:19:11.393Z,9.80
2019-04-27T02:21:40.291Z,9.80
2019-04-27T02:24:11.228Z,9.80
2019-04-27T02:26:40.423Z,9.80
2019-04-27T02:29:39.060Z,9.70
2019-04-27T02:32:33.426Z,9.60
2019-04-27T02:35:05.045Z,9.60
2019-04-27T02:37:34.166Z,9.60
2019-04-27T02:40:03.357Z,9.50
2019-04-27T02:42:42.285Z,9.40
2019-04-27T02:45:11.750Z,9.40
2019-04-27T02:47:40.931Z,9.30
2019-04-27T02:50:10.932Z,9.30
2019-04-27T02:52:45.001Z,9.30
2019-04-27T02:55:14.191Z,9.20
2019-04-27T02:57:43.705Z,9.20
2019-04-27T03:00:14.112Z,9.20
2019-04-27T03:02:56.745Z,9.00
2019-04-27T03:05:26.598Z,9.20
2019-04-27T03:07:55.905Z,9.10
2019-04-27T03:10:26.749Z,9.20
2019-04-27T03:13:19.875Z,9.10
2019-04-27T03:16:00.507Z,9.10
2019-04-27T03:18:41.511Z,9.10
2019-04-27T03:21:20.108Z,8.90
2019-04-27T03:23:50.148Z,8.90
2019-04-27T03:26:44.480Z,8.90
2019-04-27T03:29:14.582Z,9.00
2019-04-27T03:31:47.112Z,8.90
2019-04-27T03:34:16.400Z,9.00
2019-04-27T03:36:45.752Z,8.80
2019-04-27T03:39:14.894Z,8.90
2019-04-27T03:41:44.070Z,8.90
2019-04-27T03:44:13.525Z,8.90
2019-04-27T03:46:42.735Z,8.90
2019-04-27T03:49:27.939Z,8.90
2019-04-27T03:51:53.257Z,9.00
2019-04-27T03:54:31.740Z,9.00
2019-04-27T03:57:05.584Z,8.80
2019-04-27T03:59:54.293Z,8.80
2019-04-27T04:02:23.420Z,8.80
2019-04-27T04:04:52.582Z,8.80
2019-04-27T04:07:21.687Z,8.80
2019-04-27T04:09:50.928Z,8.70
2019-04-27T04:12:26.157Z,8.70
2019-04-27T04:14:55.298Z,8.70
2019-04-27T04:17:24.893Z,8.60
2019-04-27T04:19:58.057Z,8.60
2019-04-27T04:22:24.979Z,8.60
2019-04-27T04:24:54.215Z,8.70
2019-04-27T04:27:23.436Z,8.50
2019-04-27T04:29:52.629Z,8.40
2019-04-27T04:32:21.763Z,8.40
2019-04-27T04:34:50.915Z,8.50
2019-04-27T04:37:20.220Z,8.50
2019-04-27T04:39:53.177Z,8.50
2019-04-27T04:42:29.955Z,8.40
2019-04-27T04:45:20.255Z,8.40
2019-04-27T04:47:59.622Z,8.30
2019-04-27T04:50:30.390Z,8.40
2019-04-27T04:53:00.065Z,8.40
2019-04-27T04:55:30.605Z,8.50
2019-04-27T04:57:59.989Z,8.60
2019-04-27T05:00:29.825Z,8.70
2019-04-27T05:02:59.603Z,8.80
2019-04-27T05:05:29.403Z,8.70
2019-04-27T05:08:00.696Z,8.70
2019-04-27T05:10:31.253Z,8.80
2019-04-27T05:13:00.650Z,8.90
2019-04-27T05:15:29.789Z,9.00
2019-04-27T05:17:59.266Z,9.10
2019-04-27T05:20:43.438Z,9.40
2019-04-27T05:23:12.557Z,9.60
2019-04-27T05:25:41.752Z,10.10
2019-04-27T05:28:10.908Z,10.40
2019-04-27T05:30:40.045Z,10.60
2019-04-27T05:33:09.281Z,10.50
2019-04-27T05:35:40.940Z,10.50
2019-04-27T05:38:12.919Z,10.30
2019-04-27T05:40:40.536Z,10.30
2019-04-27T05:43:11.176Z,10.30
2019-04-27T05:46:29.811Z,10.30
2019-04-27T05:49:06.079Z,10.30
2019-04-27T05:51:36.607Z,10.50
2019-04-27T05:54:01.651Z,10.60
2019-04-27T05:56:30.840Z,10.40
2019-04-27T05:59:00.418Z,10.60
2019-04-27T06:01:29.775Z,10.60
2019-04-27T06:03:58.972Z,10.70
2019-04-27T06:06:29.544Z,10.80
2019-04-27T06:08:59.428Z,10.90
2019-04-27T06:11:28.771Z,10.70
2019-04-27T06:13:59.334Z,10.80
2019-04-27T06:16:29.530Z,11.00
2019-04-27T06:18:59.445Z,11.20
2019-04-27T06:21:29.504Z,11.30
2019-04-27T06:23:59.026Z,11.30
2019-04-27T06:26:30.098Z,11.50
2019-04-27T06:28:59.577Z,11.40
2019-04-27T06:31:29.714Z,11.50
2019-04-27T06:33:59.737Z,11.60
2019-04-27T06:36:28.995Z,11.60
2019-04-27T06:38:58.935Z,11.70
2019-04-27T06:41:29.442Z,11.60
2019-04-27T06:43:59.317Z,11.80
2019-04-27T06:46:28.940Z,11.90
2019-04-27T06:48:59.318Z,12.00
2019-04-27T06:51:28.868Z,12.10
2019-04-27T06:53:59.461Z,12.20
2019-04-27T06:56:28.905Z,12.30
2019-04-27T06:58:59.692Z,12.50
2019-04-27T07:01:29.980Z,12.60
2019-04-27T07:03:59.858Z,12.80
2019-04-27T07:06:29.178Z,12.90
2019-04-27T07:08:59.847Z,13.00
2019-04-27T07:11:29.607Z,13.10
2019-04-27T07:13:59.428Z,13.20
2019-04-27T07:16:29.419Z,13.30
2019-04-27T07:18:59.359Z,13.60
2019-04-27T07:21:28.746Z,13.90
2019-04-27T07:23:59.436Z,14.00
2019-04-27T07:26:30.645Z,14.40
2019-04-27T07:28:59.997Z,14.80
2019-04-27T07:31:31.608Z,15.20
2019-04-27T07:34:00.053Z,15.50
2019-04-27T07:36:29.188Z,15.70
2019-04-27T07:38:59.850Z,16.00
2019-04-27T07:41:29.409Z,16.20
2019-04-27T07:44:04.892Z,16.30
2019-04-27T07:46:34.141Z,16.30
2019-04-27T07:49:03.330Z,16.20
2019-04-27T07:51:34.365Z,16.20
2019-04-27T07:54:03.476Z,16.00
2019-04-27T07:56:32.641Z,16.10
2019-04-27T07:59:20.843Z,15.90
2019-04-27T08:01:50.100Z,15.90
2019-04-27T08:04:19.271Z,15.80
2019-04-27T08:06:49.634Z,15.70
2019-04-27T08:09:19.144Z,15.70
2019-04-27T08:11:48.810Z,15.90
2019-04-27T08:14:18.590Z,16.00
2019-04-27T08:16:48.680Z,16.20
2019-04-27T08:19:19.677Z,16.10
2019-04-27T08:21:49.982Z,16.10
2019-04-27T08:24:19.505Z,15.90
2019-04-27T08:27:16.920Z,15.90
2019-04-27T08:30:00.380Z,15.70
2019-04-27T08:32:39.041Z,15.80
2019-04-27T08:35:09.542Z,15.90
2019-04-27T08:37:38.797Z,16.00
2019-04-27T08:40:09.327Z,15.90
2019-04-27T08:42:39.240Z,15.90
2019-04-27T08:45:09.372Z,15.90
2019-04-27T08:47:41.375Z,15.80
2019-04-27T08:50:09.847Z,15.80
2019-04-27T08:52:41.631Z,16.10
2019-04-27T08:55:10.140Z,16.30
2019-04-27T08:57:39.307Z,16.20
2019-04-27T09:00:09.866Z,16.10
2019-04-27T09:02:46.881Z,16.00
2019-04-27T09:05:12.578Z,15.90
2019-04-27T09:07:55.163Z,15.80
2019-04-27T09:10:42.737Z,15.70
2019-04-27T09:13:19.465Z,15.60
2019-04-27T09:15:56.441Z,15.50
2019-04-27T09:18:29.074Z,15.30
2019-04-27T09:21:00.522Z,15.30
2019-04-27T09:23:29.673Z,15.00
2019-04-27T09:26:00.238Z,15.00
2019-04-27T09:28:29.583Z,14.90
2019-04-27T09:30:58.953Z,14.70
2019-04-27T09:33:28.170Z,14.70
2019-04-27T09:35:57.323Z,14.70
2019-04-27T09:38:26.885Z,14.80
2019-04-27T09:40:58.109Z,14.90
2019-04-27T09:43:27.681Z,14.90
2019-04-27T09:45:56.966Z,14.90
2019-04-27T09:48:26.177Z,14.80
2019-04-27T09:50:55.946Z,14.80
2019-04-27T09:53:27.021Z,14.80
2019-04-27T09:55:56.369Z,14.80
2019-04-27T09:58:25.820Z,14.80
2019-04-27T10:00:56.782Z,14.80
2019-04-27T10:03:26.650Z,14.80
2019-04-27T10:05:57.077Z,14.80
2019-04-27T10:08:26.456Z,14.80
2019-04-27T10:10:56.655Z,14.90
2019-04-27T10:13:27.568Z,14.90
2019-04-27T10:15:56.820Z,15.00
2019-04-27T10:18:26.593Z,15.00
2019-04-27T10:20:59.746Z,15.10
2019-04-27T10:23:26.831Z,15.30
2019-04-27T10:25:56.081Z,15.40
2019-04-27T10:28:25.204Z,15.50
2019-04-27T10:30:55.729Z,15.40
2019-04-27T10:33:26.068Z,15.40
2019-04-27T10:35:56.465Z,15.40
2019-04-27T10:38:26.089Z,15.40
2019-04-27T10:40:55.531Z,15.40
2019-04-27T10:43:25.779Z,15.30
2019-04-27T10:45:56.459Z,15.40
2019-04-27T10:48:26.536Z,15.30
2019-04-27T10:50:55.880Z,15.40
2019-04-27T10:53:26.766Z,15.40
2019-04-27T10:55:56.549Z,15.30
2019-04-27T10:58:27.285Z,15.30
2019-04-27T11:00:58.585Z,15.30
2019-04-27T11:03:46.186Z,15.10
2019-04-27T11:06:34.366Z,14.90
2019-04-27T11:09:06.017Z,14.70
2019-04-27T11:11:36.349Z,14.70
2019-04-27T11:14:06.909Z,14.70
2019-04-27T11:16:37.720Z,14.70
2019-04-27T11:19:07.320Z,14.60
2019-04-27T11:21:36.469Z,14.60
2019-04-27T11:24:07.122Z,14.50
2019-04-27T11:26:36.438Z,14.40
2019-04-27T11:29:06.143Z,14.40
2019-04-27T11:31:36.348Z,14.40
2019-04-27T11:34:06.693Z,14.40
2019-04-27T11:36:41.412Z,14.40
2019-04-27T11:39:16.246Z,14.30
2019-04-27T11:41:45.741Z,14.40
2019-04-27T11:44:15.246Z,14.40
2019-04-27T11:46:47.462Z,14.40
2019-04-27T11:49:16.829Z,14.40
2019-04-27T11:51:46.693Z,14.50
2019-04-27T11:54:15.925Z,14.50
2019-04-27T11:56:46.790Z,14.50
2019-04-27T11:59:16.125Z,14.50
2019-04-27T12:01:45.962Z,14.70
2019-04-27T12:04:16.089Z,14.70
2019-04-27T12:06:46.248Z,14.80
2019-04-27T12:09:15.645Z,14.80
2019-04-27T12:11:44.829Z,14.90
2019-04-27T12:14:15.133Z,14.90
2019-04-27T12:16:46.060Z,15.10
2019-04-27T12:19:16.422Z,15.30
2019-04-27T12:21:46.357Z,15.50
2019-04-27T12:24:16.131Z,15.50
2019-04-27T12:27:02.013Z,15.60
2019-04-27T12:29:48.968Z,15.60
2019-04-27T12:32:18.500Z,15.60
2019-04-27T12:34:47.697Z,15.70
2019-04-27T12:37:16.900Z,15.90
2019-04-27T12:39:46.053Z,16.00
2019-04-27T12:42:16.059Z,15.90
2019-04-27T12:44:45.408Z,15.70
2019-04-27T12:47:16.243Z,15.60
2019-04-27T12:49:45.797Z,15.70
2019-04-27T12:52:15.932Z,16.00
2019-04-27T12:54:51.160Z,16.20
2019-04-27T12:57:31.224Z,16.50
2019-04-27T13:00:08.549Z,16.40
2019-04-27T13:02:37.759Z,16.40
2019-04-27T13:05:07.401Z,16.40
2019-04-27T13:07:36.708Z,16.30
2019-04-27T13:10:06.828Z,16.20
2019-04-27T13:12:37.248Z,15.80
2019-04-27T13:15:08.328Z,15.80
2019-04-27T13:17:37.508Z,15.90
2019-04-27T13:20:07.213Z,16.10
2019-04-27T13:22:37.247Z,16.20
2019-04-27T13:25:08.811Z,16.20
2019-04-27T13:27:38.076Z,16.10
2019-04-27T13:30:09.496Z,16.00
2019-04-27T13:32:38.644Z,16.00
2019-04-27T13:35:07.957Z,16.10
2019-04-27T13:37:41.618Z,16.20
2019-04-27T13:40:12.539Z,16.30
2019-04-27T13:42:47.347Z,16.20
2019-04-27T13:45:26.638Z,16.10
2019-04-27T13:48:14.862Z,16.10
2019-04-27T13:50:48.254Z,16.00
2019-04-27T13:53:17.395Z,15.70
2019-04-27T13:55:48.501Z,15.80
2019-04-27T13:58:17.424Z,15.70
2019-04-27T14:00:46.688Z,15.60
2019-04-27T14:03:16.725Z,15.50
2019-04-27T14:05:47.735Z,15.50
2019-04-27T14:08:17.976Z,15.60
2019-04-27T14:10:47.144Z,15.40
2019-04-27T14:13:18.065Z,15.50
2019-04-27T14:15:48.971Z,15.40
2019-04-27T14:18:19.079Z,15.40
2019-04-27T14:20:48.658Z,15.30
2019-04-27T14:23:20.066Z,15.30
2019-04-27T14:25:49.198Z,15.30
2019-04-27T14:28:18.409Z,15.20
2019-04-27T14:30:48.686Z,15.20
2019-04-27T14:33:18.555Z,15.10
2019-04-27T14:35:48.034Z,15.00
2019-04-27T14:38:19.174Z,15.00
2019-04-27T14:40:50.385Z,15.00
2019-04-27T14:43:19.375Z,15.10
2019-04-27T14:45:48.652Z,15.10
2019-04-27T14:48:18.433Z,15.10
2019-04-27T14:50:49.291Z,15.00
2019-04-27T14:53:18.436Z,15.00
2019-04-27T14:55:49.016Z,14.90
2019-04-27T14:58:19.171Z,14.90
2019-04-27T15:00:49.891Z,14.70
2019-04-27T15:03:19.371Z,14.50
2019-04-27T15:05:49.599Z,14.20
2019-04-27T15:08:19.383Z,13.90
2019-04-27T15:10:48.632Z,13.60
2019-04-27T15:13:18.764Z,13.30
2019-04-27T15:15:48.101Z,13.10
2019-04-27T15:18:17.328Z,12.50
2019-04-27T15:20:46.782Z,12.00
2019-04-27T15:23:16.096Z,11.70
2019-04-27T15:25:46.990Z,11.60
2019-04-27T15:28:19.068Z,11.50
2019-04-27T15:31:07.257Z,11.50
2019-04-27T15:34:04.329Z,11.50
2019-04-27T15:36:56.845Z,11.40
2019-04-27T15:40:08.427Z,11.40
2019-04-27T15:42:49.636Z,11.50
2019-04-27T15:45:22.875Z,11.60
2019-04-27T15:47:52.229Z,11.60
2019-04-27T15:50:18.781Z,11.70
2019-04-27T15:52:48.764Z,11.80
2019-04-27T15:55:32.201Z,12.00
2019-04-27T15:57:50.454Z,12.10
2019-04-27T16:00:29.068Z,12.10
2019-04-27T16:02:58.441Z,12.10
2019-04-27T16:05:31.228Z,12.00
2019-04-27T16:08:00.948Z,12.00
2019-04-27T16:10:32.802Z,11.90
2019-04-27T16:13:06.636Z,11.90
2019-04-27T16:15:31.300Z,11.80
2019-04-27T16:18:00.517Z,11.90
2019-04-27T16:20:33.749Z,11.90
2019-04-27T16:23:03.186Z,11.90
2019-04-27T16:25:35.438Z,11.90
2019-04-27T16:28:04.643Z,11.80
2019-04-27T16:30:34.755Z,11.80
2019-04-27T16:33:03.980Z,11.90
2019-04-27T16:35:33.296Z,12.10
2019-04-27T16:38:33.412Z,12.10
2019-04-27T16:41:03.363Z,12.10
2019-04-27T16:43:32.900Z,12.10
2019-04-27T16:46:04.297Z,12.10
2019-04-27T16:48:34.647Z,12.20
2019-04-27T16:51:04.447Z,12.10
2019-04-27T16:53:38.186Z,12.00
2019-04-27T16:56:14.407Z,12.00
2019-04-27T16:58:39.721Z,12.00
2019-04-27T17:01:14.242Z,12.00
2019-04-27T17:03:43.517Z,11.90
2019-04-27T17:06:12.655Z,12.00
2019-04-27T17:08:41.780Z,12.00
2019-04-27T17:11:13.678Z,12.10
2019-04-27T17:13:49.463Z,12.10
2019-04-27T17:16:38.957Z,12.10
2019-04-27T17:19:17.937Z,12.00
2019-04-27T17:21:48.549Z,12.00
2019-04-27T17:24:37.472Z,12.00
2019-04-27T17:27:04.425Z,12.10
2019-04-27T17:29:38.522Z,12.00
2019-04-27T17:32:08.883Z,11.90
2019-04-27T17:34:39.705Z,12.00
2019-04-27T17:37:09.096Z,12.00
2019-04-27T17:39:38.704Z,11.90
2019-04-27T17:42:08.584Z,12.00
2019-04-27T17:44:39.373Z,12.00
2019-04-27T17:47:10.635Z,11.90
2019-04-27T17:49:40.061Z,11.90
2019-04-27T17:52:13.133Z,11.80
2019-04-27T17:54:46.949Z,11.80
2019-04-27T17:57:13.593Z,11.80
2019-04-27T17:59:43.394Z,11.80
2019-04-27T18:02:12.584Z,11.70
2019-04-27T18:04:41.921Z,11.70
2019-04-27T18:07:11.219Z,11.90
2019-04-27T18:09:43.472Z,11.40
2019-04-27T18:12:14.550Z,11.00
2019-04-27T18:14:42.156Z,10.80
2019-04-27T18:17:12.238Z,10.60
2019-04-27T18:19:49.248Z,10.40
2019-04-27T18:22:20.060Z,10.40
2019-04-27T18:25:06.893Z,10.30
2019-04-27T18:28:08.061Z,10.10
2019-04-27T18:31:00.077Z,10.10
2019-04-27T18:33:32.579Z,10.00
2019-04-27T18:36:05.609Z,10.10
2019-04-27T18:38:35.460Z,10.00
2019-04-27T18:41:03.086Z,10.10
2019-04-27T18:43:33.224Z,10.10
2019-04-27T18:46:02.441Z,10.00
2019-04-27T18:48:53.890Z,10.00
2019-04-27T18:51:38.425Z,10.00
2019-04-27T18:54:09.065Z,9.90
2019-04-27T18:56:41.609Z,10.00
2019-04-27T18:59:10.716Z,10.00
2019-04-27T19:01:39.915Z,9.90
2019-04-27T19:04:09.074Z,9.80
2019-04-27T19:06:39.099Z,10.00
2019-04-27T19:09:09.213Z,10.00
2019-04-27T19:11:38.470Z,9.90
2019-04-27T19:14:08.292Z,10.00
2019-04-27T19:16:38.351Z,10.00
2019-04-27T19:19:08.637Z,9.90
2019-04-27T19:21:39.282Z,10.00
2019-04-27T19:24:09.016Z,9.80
2019-04-27T19:27:15.032Z,9.90
2019-04-27T19:29:42.360Z,9.80
2019-04-27T19:32:11.608Z,9.70
2019-04-27T19:34:41.007Z,9.80
2019-04-27T19:37:10.178Z,9.80
2019-04-27T19:39:39.485Z,9.70
2019-04-27T19:42:08.807Z,9.50
2019-04-27T19:44:38.928Z,9.40
2019-04-27T19:47:10.276Z,9.20
2019-04-27T19:49:39.242Z,9.10
2019-04-27T19:52:08.754Z,8.80
2019-04-27T19:54:39.816Z,8.70
2019-04-27T19:57:09.262Z,8.60
2019-04-27T19:59:48.899Z,8.50
2019-04-27T20:02:20.560Z,8.40
2019-04-27T20:04:56.450Z,8.40
2019-04-27T20:07:25.638Z,8.50
2019-04-27T20:09:58.389Z,8.50
2019-04-27T20:12:28.797Z,8.50
2019-04-27T20:14:58.388Z,8.50
2019-04-27T20:17:31.055Z,8.50
2019-04-27T20:20:00.421Z,8.50
2019-04-27T20:22:29.798Z,8.50
2019-04-27T20:24:58.957Z,8.50
2019-04-27T20:27:28.183Z,8.40
2019-04-27T20:29:57.461Z,8.40
2019-04-27T20:32:26.639Z,8.40
2019-04-27T20:34:55.839Z,8.40
2019-04-27T20:37:25.096Z,8.40
2019-04-27T20:39:54.302Z,8.40
2019-04-27T20:42:23.507Z,8.40
2019-04-27T20:44:52.696Z,8.40
2019-04-27T20:47:21.942Z,8.30
2019-04-27T20:49:51.126Z,8.40
2019-04-27T20:52:42.451Z,8.40
2019-04-27T20:55:12.427Z,8.40
2019-04-27T20:57:41.742Z,8.40
2019-04-27T21:00:12.683Z,8.40
2019-04-27T21:02:51.700Z,8.30
2019-04-27T21:05:42.633Z,8.30
2019-04-27T21:08:11.889Z,8.30
2019-04-27T21:10:41.393Z,8.30
2019-04-27T21:13:11.216Z,8.30
2019-04-27T21:15:41.955Z,8.30
2019-04-27T21:18:11.572Z,8.30
2019-04-27T21:20:41.322Z,8.40
2019-04-27T21:23:12.058Z,8.40
2019-04-27T21:25:42.131Z,8.40
2019-04-27T21:28:16.505Z,8.50
2019-04-27T21:30:42.545Z,8.50
2019-04-27T21:33:11.756Z,8.50
2019-04-27T21:35:40.968Z,8.50
2019-04-27T21:38:11.642Z,8.40
2019-04-27T21:40:40.993Z,8.40
2019-04-27T21:43:11.346Z,8.50
2019-04-27T21:45:42.018Z,8.50
2019-04-27T21:48:11.363Z,8.50
2019-04-27T21:50:41.349Z,8.50
2019-04-27T21:53:21.270Z,8.40
2019-04-27T21:56:01.539Z,8.50
2019-04-27T21:58:31.328Z,8.30
2019-04-27T22:01:27.141Z,8.40
2019-04-27T22:03:56.567Z,8.20
2019-04-27T22:06:25.840Z,8.20
2019-04-27T22:08:55.140Z,8.20
2019-04-27T22:11:24.376Z,8.10
2019-04-27T22:13:53.546Z,8.30
2019-04-27T22:16:22.672Z,8.10
2019-04-27T22:18:52.095Z,8.10
2019-04-27T22:21:21.723Z,8.10
2019-04-27T22:24:15.955Z,8.00
2019-04-27T22:26:45.245Z,8.10
2019-04-27T22:29:14.526Z,8.00
2019-04-27T22:31:43.767Z,7.90
2019-04-27T22:34:12.980Z,7.90
2019-04-27T22:36:42.208Z,8.10
2019-04-27T22:39:30.881Z,8.00
2019-04-27T22:42:31.347Z,8.00
2019-04-27T22:45:19.754Z,8.10
2019-04-27T22:47:49.056Z,7.90
2019-04-27T22:50:18.655Z,7.90
2019-04-27T22:52:47.780Z,7.80
2019-04-27T22:55:16.889Z,7.80
2019-04-27T22:57:51.669Z,7.80
2019-04-27T23:00:38.776Z,7.90
2019-04-27T23:03:11.011Z,7.80
2019-04-27T23:05:43.017Z,7.90
2019-04-27T23:08:12.353Z,7.80
2019-04-27T23:10:41.500Z,7.80
2019-04-27T23:13:12.098Z,7.80
2019-04-27T23:15:44.613Z,7.70
2019-04-27T23:18:13.819Z,7.60
2019-04-27T23:20:43.088Z,7.60
2019-04-27T23:23:12.382Z,7.50
2019-04-27T23:25:42.730Z,7.50
2019-04-27T23:28:12.172Z,7.50
2019-04-27T23:30:49.202Z,7.50
2019-04-27T23:33:18.428Z,7.50
2019-04-27T23:35:47.792Z,7.50
2019-04-27T23:38:18.013Z,7.50
2019-04-27T23:40:47.332Z,7.40
2019-04-27T23:43:16.493Z,7.50
2019-04-27T23:45:45.695Z,7.60
2019-04-27T23:48:14.879Z,7.50
2019-04-27T23:50:45.675Z,7.40
2019-04-27T23:53:19.608Z,7.30
2019-04-27T23:55:48.740Z,7.20
2019-04-27T23:58:18.005Z,7.30
